Terminal Aerodrome Forecast
Issued by NWS

Home | Current Version | Previous Version | Text Only | Print | Product List | Glossary On
Versions: 1 2 3 4 5 6 7 8 9 10 11 12
000
FTUS45 KGGW 191720
TAFGDV
TAF
KGDV 191720Z 1918/2018 30017G27KT P6SM SCT180
     FM200000 34014KT P6SM FEW180
     FM200300 36009KT P6SM FEW160
     FM200900 02007KT P6SM BKN100=

USA.gov is the U.S. government's official web portal to all federal, state and local government web resources and services.